This is the latest recevied weather packets stored in our database for station/object YG1CIC-13. If no packets are shown the sender has not sent any weather packets the latest 1 day(s).
| Time | Temp. | Humidity | Pressure | Rain* | Wind** | Luminosity | Snow |
|---|---|---|---|---|---|---|---|
| 1778048713 | 35.56° C | 68% | - | 0 mm | - | - | - |
| 1778047512 | 35.56° C | 68% | - | 0 mm | - | - | - |
| 1778046912 | 35.56° C | 66% | - | 0 mm | - | - | - |
| 1778046312 | 36.67° C | 63% | - | 0 mm | - | - | - |
| 1778045712 | 36.11° C | 64% | - | 0 mm | - | - | - |
| 1778045112 | 36.11° C | 62% | - | 0 mm | - | - | - |
| 1778042711 | 35° C | 63% | - | 0 mm | - | - | - |
| 1778042111 | 36.11° C | 63% | - | 0 mm | - | - | - |
| 1778041511 | 35° C | 64% | - | 0 mm | - | - | - |
| 1778040911 | 35.56° C | 63% | - | 0 mm | - | - | - |
| 1778039709 | 34.44° C | 67% | - | 0 mm | - | - | - |
| 1778038508 | 33.89° C | 68% | - | 0 mm | - | - | - |
| 1778037907 | 33.33° C | 69% | - | 0 mm | - | - | - |
| 1778037306 | 33.33° C | 68% | - | 0 mm | - | - | - |
| 1778031900 | 40° C | 56% | - | 0 mm | - | - | - |
| 1778031300 | 39.44° C | 56% | - | 0 mm | - | - | - |
| 1778030700 | 37.22° C | 62% | - | 0 mm | - | - | - |
| 1778030100 | 40° C | 57% | - | 0 mm | - | - | - |
| 1778029499 | 35° C | 67% | - | 0 mm | - | - | - |
| 1778028898 | 37.78° C | 61% | - | 0 mm | - | - | - |
| 1778028297 | 37.78° C | 65% | - | 0 mm | - | - | - |
| 1778027696 | 35.56° C | 71% | - | 0 mm | - | - | - |
| 1778027095 | 34.44° C | 73% | - | 0 mm | - | - | - |
| 1778026495 | 31.11° C | 86% | - | 0 mm | - | - | - |
| 1778024694 | 29.44° C | 93% | - | 0 mm | - | - | - |
* Rain latest hour (hover to see other rain measurements)
** Current wind speed in m/s (hover to see current wind gust speed)